Time,TemperatureF,DewpointF,PressureIn,WindDirection,WindDirectionDegrees,WindSpeedMPH,WindSpeedGustMPH,Humidity,HourlyPrecipIn,Conditions,Clouds,dailyrainin,SoftwareType,DateUTC
2013-01-12 00:00:00,52.3,52.3,29.92,SSW,202,4.4,11.3,100,0.00,,BKN250,0.00,VWS V14.01,2013-01-12 05:00:00,
2013-01-12 00:01:00,52.3,52.3,29.92,SSW,202,5.2,6.6,100,0.00,,BKN250,0.00,VWS V14.01,2013-01-12 05:01:00,
2013-01-12 00:02:00,52.3,52.3,29.92,SSE,167,4.4,6.6,100,0.00,,BKN250,0.00,VWS V14.01,2013-01-12 05:02:00,
2013-01-12 00:04:00,52.3,52.3,29.92,South,171,5.9,7.5,100,0.00,,BKN250,0.00,VWS V14.01,2013-01-12 05:04:00,
2013-01-12 00:09:00,52.3,52.3,29.92,South,183,0.0,0.0,100,0.00,,BKN250,0.00,VWS V14.01,2013-01-12 05:09:00,
2013-01-12 00:14:00,52.2,52.2,29.92,South,177,5.2,11.3,100,0.00,,BKN250,0.00,VWS V14.01,2013-01-12 05:14:00,
2013-01-12 00:19:00,52.2,52.2,29.92,SSW,204,4.4,6.6,100,0.00,,BKN250,0.00,VWS V14.01,2013-01-12 05:19:00,
2013-01-12 00:24:00,52.2,52.2,29.92,SSE,168,4.4,7.5,100,0.00,,BKN250,0.00,VWS V14.01,2013-01-12 05:24:00,
2013-01-12 00:29:00,52.2,52.2,29.92,SSW,202,5.2,10.3,100,0.00,,BKN250,0.00,VWS V14.01,2013-01-12 05:29:00,
2013-01-12 00:34:00,52.2,52.2,29.92,South,189,5.2,7.5,100,0.00,,BKN250,0.00,VWS V14.01,2013-01-12 05:34:00,
2013-01-12 00:39:00,52.2,52.2,29.92,South,188,4.4,5.6,100,0.00,,BKN250,0.00,VWS V14.01,2013-01-12 05:39:00,
2013-01-12 00:44:00,52.0,52.0,29.92,South,177,3.7,7.5,100,0.00,,BKN250,0.00,VWS V14.01,2013-01-12 05:44:00,
2013-01-12 00:50:00,52.0,52.0,29.92,SSE,167,5.2,6.6,100,0.00,,BKN250,0.00,VWS V14.01,2013-01-12 05:50:00,
2013-01-12 00:55:00,51.8,51.8,29.92,SSE,168,0.0,0.0,100,0.00,,BKN250,0.00,VWS V14.01,2013-01-12 05:55:00,
2013-01-12 01:00:00,51.6,51.6,29.92,South,169,4.4,8.5,100,0.00,,BKN250,0.00,VWS V14.01,2013-01-12 06:00:00,
2013-01-12 01:05:00,51.4,51.4,29.92,SSW,197,5.9,7.5,100,0.00,,BKN250,0.00,VWS V14.01,2013-01-12 06:05:00,
2013-01-12 01:10:00,51.3,51.3,29.89,South,186,5.9,7.5,100,0.00,,BKN250,0.00,VWS V14.01,2013-01-12 06:10:00,
2013-01-12 01:15:00,51.1,51.1,29.89,South,186,3.7,5.6,100,0.00,,BKN250,0.00,VWS V14.01,2013-01-12 06:15:00,
2013-01-12 01:20:00,51.1,51.1,29.89,SSW,198,5.9,7.5,100,0.00,,BKN250,0.00,VWS V14.01,2013-01-12 06:20:00,
2013-01-12 01:25:00,51.4,51.4,29.89,South,179,8.9,12.2,100,0.00,,BKN250,0.00,VWS V14.01,2013-01-12 06:25:00,
2013-01-12 01:30:00,52.0,52.0,29.89,South,187,5.2,7.5,100,0.00,,BKN250,0.00,VWS V14.01,2013-01-12 06:30:00,
2013-01-12 01:35:00,52.5,52.5,29.89,SSW,194,6.6,11.3,100,0.00,,SCT250,0.00,VWS V14.01,2013-01-12 06:35:00,
2013-01-12 01:41:00,53.1,53.1,29.89,SSW,192,8.9,13.2,100,0.00,,SCT250,0.00,VWS V14.01,2013-01-12 06:41:00,
2013-01-12 01:46:00,53.2,53.2,29.89,SSW,208,5.9,7.5,100,0.00,,SCT250,0.00,VWS V14.01,2013-01-12 06:46:00,
2013-01-12 01:51:00,53.6,53.6,29.89,West,274,5.2,10.3,100,0.00,,SCT250,0.00,VWS V14.01,2013-01-12 06:51:00,
2013-01-12 01:56:00,54.0,54.0,29.92,SSW,194,4.4,11.3,100,0.00,,SCT250,0.00,VWS V14.01,2013-01-12 06:56:00,
2013-01-12 02:01:00,54.3,54.3,29.92,SSW,198,5.9,7.5,100,0.00,,SCT250,0.00,VWS V14.01,2013-01-12 07:01:00,
2013-01-12 02:06:00,54.3,54.3,29.92,SW,214,3.7,7.5,100,0.00,,SCT250,0.00,VWS V14.01,2013-01-12 07:06:00,
2013-01-12 02:11:00,54.5,54.5,29.92,South,189,5.9,16.0,100,0.00,,SCT250,0.00,VWS V14.01,2013-01-12 07:11:00,
2013-01-12 02:16:00,54.5,54.5,29.92,South,177,0.0,5.6,100,0.00,,SCT250,0.00,VWS V14.01,2013-01-12 07:16:00,
2013-01-12 02:21:00,54.5,54.5,29.92,South,180,6.6,10.3,100,0.00,,SCT250,0.00,VWS V14.01,2013-01-12 07:21:00,
2013-01-12 02:26:00,54.5,54.5,29.92,South,184,5.2,6.6,100,0.00,,SCT250,0.00,VWS V14.01,2013-01-12 07:26:00,
2013-01-12 02:31:00,54.3,54.3,29.92,SSW,206,5.9,8.5,100,0.00,,SCT250,0.00,VWS V14.01,2013-01-12 07:31:00,
2013-01-12 02:36:00,54.3,54.3,29.92,SSE,166,9.6,12.2,100,0.00,,FEW230,0.00,VWS V14.01,2013-01-12 07:36:00,
2013-01-12 02:41:00,54.3,54.3,29.92,South,179,4.4,5.6,100,0.00,,FEW230,0.00,VWS V14.01,2013-01-12 07:41:00,
2013-01-12 02:46:00,54.3,54.3,29.92,South,173,6.6,8.5,100,0.00,,FEW230,0.00,VWS V14.01,2013-01-12 07:46:00,
2013-01-12 02:51:00,54.3,54.3,29.92,South,182,7.4,9.4,100,0.00,,FEW230,0.00,VWS V14.01,2013-01-12 07:51:00,
2013-01-12 02:56:00,54.1,54.1,29.92,SW,219,3.7,5.6,100,0.00,,FEW230,0.00,VWS V14.01,2013-01-12 07:56:00,
2013-01-12 03:02:00,54.1,54.1,29.92,SSW,205,0.0,4.7,100,0.00,,FEW230,0.00,VWS V14.01,2013-01-12 08:02:00,
2013-01-12 03:06:00,54.1,54.1,29.92,SSW,206,5.9,7.5,100,0.00,,FEW230,0.00,VWS V14.01,2013-01-12 08:06:00,
2013-01-12 03:11:00,54.0,54.0,29.92,SSW,194,6.6,8.5,100,0.00,,FEW230,0.00,VWS V14.01,2013-01-12 08:11:00,
2013-01-12 03:16:00,53.8,53.8,29.92,SSW,194,0.0,6.6,100,0.00,,FEW230,0.00,VWS V14.01,2013-01-12 08:16:00,
2013-01-12 03:21:00,53.6,53.6,29.92,SSW,194,5.2,6.6,100,0.00,,FEW230,0.00,VWS V14.01,2013-01-12 08:21:00,
2013-01-12 03:26:00,53.4,53.4,29.92,SSW,194,4.4,7.5,100,0.00,,FEW230,0.00,VWS V14.01,2013-01-12 08:26:00,
2013-01-12 03:31:00,53.4,53.4,29.92,SSW,194,4.4,7.5,100,0.00,,FEW230,0.00,VWS V14.01,2013-01-12 08:31:00,
2013-01-12 03:36:00,53.2,53.2,29.92,SSW,194,5.9,7.5,100,0.00,,FEW230,0.00,VWS V14.01,2013-01-12 08:36:00,
2013-01-12 03:41:00,53.2,53.2,29.92,SSW,206,5.9,8.5,100,0.00,,FEW230,0.00,VWS V14.01,2013-01-12 08:41:00,
2013-01-12 03:46:00,53.4,53.4,29.92,SSW,196,5.9,8.5,100,0.00,,FEW230,0.00,VWS V14.01,2013-01-12 08:46:00,
2013-01-12 03:52:00,53.4,53.4,29.92,SSW,197,5.9,7.5,100,0.00,,FEW230,0.00,VWS V14.01,2013-01-12 08:52:00,
2013-01-12 03:56:00,53.4,53.4,29.92,South,175,4.4,8.5,100,0.00,,FEW230,0.00,VWS V14.01,2013-01-12 08:56:00,
2013-01-12 04:02:00,53.4,53.4,29.92,South,183,5.2,8.5,100,0.00,,FEW230,0.00,VWS V14.01,2013-01-12 09:02:00,
2013-01-12 04:06:00,53.6,53.6,29.92,SSW,207,0.0,7.5,100,0.00,,FEW230,0.00,VWS V14.01,2013-01-12 09:06:00,
2013-01-12 04:12:00,53.8,53.8,29.92,SSW,209,3.7,4.7,100,0.00,,FEW230,0.00,VWS V14.01,2013-01-12 09:12:00,
2013-01-12 04:16:00,54.0,54.0,29.92,SSW,204,5.2,7.5,100,0.00,,FEW230,0.00,VWS V14.01,2013-01-12 09:16:00,
2013-01-12 04:21:00,54.3,54.3,29.92,SSE,148,0.0,8.5,100,0.00,,FEW230,0.00,VWS V14.01,2013-01-12 09:21:00,
2013-01-12 04:26:00,54.5,54.5,29.92,South,177,5.9,7.5,100,0.00,,FEW230,0.00,VWS V14.01,2013-01-12 09:26:00,
2013-01-12 04:32:00,54.7,54.7,29.92,South,179,6.6,12.2,100,0.00,,FEW230,0.00,VWS V14.01,2013-01-12 09:32:00,
2013-01-12 04:36:00,54.5,54.5,29.92,SSW,196,0.0,0.0,100,0.00,,FEW230,0.00,VWS V14.01,2013-01-12 09:36:00,
2013-01-12 04:42:00,54.5,54.5,29.92,SW,219,3.7,8.5,100,0.00,,FEW230,0.00,VWS V14.01,2013-01-12 09:42:00,
2013-01-12 04:47:00,54.3,54.3,29.92,SW,220,0.0,8.5,100,0.00,,FEW230,0.00,VWS V14.01,2013-01-12 09:47:00,
2013-01-12 04:52:00,54.1,54.1,29.92,SSW,197,5.2,6.6,100,0.00,,FEW230,0.00,VWS V14.01,2013-01-12 09:52:00,
2013-01-12 04:57:00,54.1,54.1,29.92,SSW,197,0.0,0.0,100,0.00,,FEW230,0.00,VWS V14.01,2013-01-12 09:57:00,
2013-01-12 05:02:00,54.0,54.0,29.92,SW,234,0.0,4.7,100,0.00,,FEW230,0.00,VWS V14.01,2013-01-12 10:02:00,
2013-01-12 05:07:00,54.1,54.1,29.92,SW,233,0.0,5.6,100,0.00,,FEW230,0.00,VWS V14.01,2013-01-12 10:07:00,
2013-01-12 05:12:00,54.1,54.1,29.92,South,189,5.9,10.3,100,0.00,,FEW230,0.00,VWS V14.01,2013-01-12 10:12:00,
2013-01-12 05:17:00,54.1,54.1,29.92,SSW,213,4.4,8.5,100,0.00,,FEW230,0.00,VWS V14.01,2013-01-12 10:17:00,
2013-01-12 05:22:00,54.5,54.5,29.92,WSW,257,4.4,8.5,100,0.00,,FEW230,0.00,VWS V14.01,2013-01-12 10:22:00,
2013-01-12 05:27:00,55.0,55.0,29.92,SSE,155,6.6,8.5,100,0.00,,FEW230,0.00,VWS V14.01,2013-01-12 10:27:00,
2013-01-12 05:32:00,55.8,55.8,29.92,South,174,8.9,11.3,100,0.00,,FEW230,0.00,VWS V14.01,2013-01-12 10:32:00,
2013-01-12 05:38:00,55.9,55.9,29.92,WSW,245,5.2,6.6,100,0.00,,FEW230,0.00,VWS V14.01,2013-01-12 10:38:00,
2013-01-12 05:43:00,56.1,56.1,29.95,South,170,16.6,21.1,100,0.00,,SCT200,0.00,VWS V14.01,2013-01-12 10:43:00,
2013-01-12 05:48:00,56.3,56.3,29.95,SW,214,11.1,14.1,100,0.00,,SCT200,0.00,VWS V14.01,2013-01-12 10:48:00,
2013-01-12 05:53:00,56.7,56.7,29.95,South,180,13.3,16.9,100,0.00,,SCT200,0.00,VWS V14.01,2013-01-12 10:53:00,
2013-01-12 05:58:00,56.8,56.8,29.95,SSW,213,12.5,16.0,100,0.00,,SCT200,0.00,VWS V14.01,2013-01-12 10:58:00,
2013-01-12 06:03:00,57.2,57.2,29.95,SSW,213,10.3,13.2,100,0.00,,SCT200,0.00,VWS V14.01,2013-01-12 11:03:00,
2013-01-12 06:08:00,57.4,57.4,29.95,South,182,13.7,17.4,100,0.00,,SCT200,0.00,VWS V14.01,2013-01-12 11:08:00,
2013-01-12 06:13:00,57.4,57.4,29.95,SSE,163,9.6,12.2,100,0.00,,SCT200,0.00,VWS V14.01,2013-01-12 11:13:00,
2013-01-12 06:18:00,57.4,57.4,29.95,West,264,5.9,11.3,100,0.00,,SCT200,0.00,VWS V14.01,2013-01-12 11:18:00,
2013-01-12 06:23:00,57.4,57.4,29.95,SSW,209,6.6,10.3,100,0.00,,SCT200,0.00,VWS V14.01,2013-01-12 11:23:00,
2013-01-12 06:28:00,57.6,57.6,29.95,South,175,9.6,12.2,100,0.00,,SCT200,0.00,VWS V14.01,2013-01-12 11:28:00,
2013-01-12 06:33:00,57.6,57.6,29.95,WSW,244,6.6,13.2,100,0.00,,SCT200,0.00,VWS V14.01,2013-01-12 11:33:00,
2013-01-12 06:38:00,57.7,57.7,29.95,WSW,243,5.2,11.3,100,0.00,,SCT200,0.00,VWS V14.01,2013-01-12 11:38:00,
2013-01-12 06:43:00,57.9,57.9,29.95,WNW,300,9.6,12.2,100,0.00,,BKN250,0.00,VWS V14.01,2013-01-12 11:43:00,
2013-01-12 06:48:00,57.9,57.9,29.95,SW,230,4.4,12.2,100,0.00,,BKN250,0.00,VWS V14.01,2013-01-12 11:48:00,
2013-01-12 06:54:00,57.7,57.7,29.95,SW,234,5.9,8.5,100,0.00,,BKN250,0.00,VWS V14.01,2013-01-12 11:54:00,
2013-01-12 06:59:00,57.9,57.9,29.95,West,264,5.2,6.6,100,0.00,,BKN250,0.00,VWS V14.01,2013-01-12 11:59:00,
2013-01-12 07:04:00,57.9,57.9,29.95,SSW,206,5.2,6.6,100,0.00,,BKN250,0.00,VWS V14.01,2013-01-12 12:04:00,
2013-01-12 07:09:00,57.9,57.9,29.95,SSW,194,5.2,6.6,100,0.00,,BKN250,0.00,VWS V14.01,2013-01-12 12:09:00,
2013-01-12 07:14:00,57.9,57.9,29.95,NNW,338,5.9,7.5,100,0.00,,BKN250,0.00,VWS V14.01,2013-01-12 12:14:00,
2013-01-12 07:19:00,57.7,57.7,29.95,SSW,197,6.6,8.5,100,0.00,,BKN250,0.00,VWS V14.01,2013-01-12 12:19:00,
2013-01-12 07:24:00,57.6,57.6,29.95,South,191,4.4,5.6,100,0.00,,BKN250,0.00,VWS V14.01,2013-01-12 12:24:00,
2013-01-12 07:29:00,57.4,57.4,29.95,South,189,5.2,6.6,100,0.00,,BKN250,0.00,VWS V14.01,2013-01-12 12:29:00,
2013-01-12 07:34:00,57.2,57.2,29.95,SSW,209,6.6,8.5,100,0.00,,BKN250,0.00,VWS V14.01,2013-01-12 12:34:00,
2013-01-12 07:39:00,57.0,57.0,29.95,South,181,4.4,12.2,100,0.00,,BKN250,0.00,VWS V14.01,2013-01-12 12:39:00,
2013-01-12 07:44:00,56.8,56.8,29.95,South,187,5.9,7.5,100,0.00,,BKN250,0.00,VWS V14.01,2013-01-12 12:44:00,
2013-01-12 07:49:00,56.7,56.7,29.95,South,185,4.4,7.5,100,0.00,,BKN250,0.00,VWS V14.01,2013-01-12 12:49:00,
2013-01-12 07:54:00,56.7,56.7,29.95,SSW,212,6.6,8.5,100,0.00,,BKN250,0.00,VWS V14.01,2013-01-12 12:54:00,
2013-01-12 07:59:00,56.7,56.7,29.95,SSW,207,5.2,8.5,100,0.00,,BKN250,0.00,VWS V14.01,2013-01-12 12:59:00,
2013-01-12 08:04:00,56.7,56.7,29.95,South,178,5.9,11.3,100,0.00,,BKN250,0.00,VWS V14.01,2013-01-12 13:04:00,
2013-01-12 08:10:00,56.7,56.7,29.98,SSW,195,6.6,15.0,100,0.00,,BKN250,0.00,VWS V14.01,2013-01-12 13:10:00,
2013-01-12 08:15:00,56.5,56.5,29.98,SSE,167,0.0,0.0,100,0.00,,BKN250,0.00,VWS V14.01,2013-01-12 13:15:00,
2013-01-12 08:20:00,56.3,56.3,29.98,South,187,4.4,8.5,100,0.00,,BKN250,0.00,VWS V14.01,2013-01-12 13:20:00,
2013-01-12 08:25:00,56.3,56.3,29.98,South,189,5.2,6.6,100,0.00,,BKN250,0.00,VWS V14.01,2013-01-12 13:25:00,
2013-01-12 08:30:00,56.3,56.3,29.98,South,183,4.4,7.5,100,0.00,,BKN250,0.00,VWS V14.01,2013-01-12 13:30:00,
2013-01-12 08:35:00,56.3,56.3,29.98,South,170,8.9,11.3,100,0.00,,BKN250,0.00,VWS V14.01,2013-01-12 13:35:00,
2013-01-12 08:40:00,56.5,56.5,29.98,SSW,194,8.1,10.3,100,0.00,,BKN250,0.00,VWS V14.01,2013-01-12 13:40:00,
2013-01-12 08:45:00,56.5,56.5,29.98,SSW,212,0.0,0.0,100,0.00,,BKN250,0.00,VWS V14.01,2013-01-12 13:45:00,
2013-01-12 08:50:00,56.5,56.5,29.98,South,188,5.9,7.5,100,0.00,,BKN250,0.00,VWS V14.01,2013-01-12 13:50:00,
2013-01-12 08:55:00,56.5,56.5,29.98,SSW,202,9.6,12.2,100,0.00,,BKN250,0.00,VWS V14.01,2013-01-12 13:55:00,
2013-01-12 09:00:00,56.5,56.5,29.98,South,178,5.9,11.3,100,0.00,,BKN250,0.00,VWS V14.01,2013-01-12 14:00:00,
2013-01-12 09:05:00,56.7,56.7,29.98,South,179,4.4,10.3,100,0.00,,BKN250,0.00,VWS V14.01,2013-01-12 14:05:00,
2013-01-12 09:10:00,56.7,56.7,29.98,South,179,3.7,4.7,100,0.00,,BKN250,0.00,VWS V14.01,2013-01-12 14:10:00,
2013-01-12 09:15:00,56.8,56.8,29.98,SSW,198,4.4,12.2,100,0.00,,BKN250,0.00,VWS V14.01,2013-01-12 14:15:00,
2013-01-12 09:20:00,57.0,57.0,29.98,South,183,4.4,7.5,100,0.00,,BKN250,0.00,VWS V14.01,2013-01-12 14:20:00,
2013-01-12 09:25:00,57.0,57.0,29.98,SSW,198,4.4,7.5,100,0.00,,BKN250,0.00,VWS V14.01,2013-01-12 14:25:00,
2013-01-12 09:30:00,57.2,57.2,29.98,SSE,150,10.3,13.2,100,0.00,,BKN250,0.00,VWS V14.01,2013-01-12 14:30:00,
2013-01-12 09:35:00,57.2,57.2,29.98,SSW,203,5.2,6.6,100,0.00,,BKN250,0.00,VWS V14.01,2013-01-12 14:35:00,
2013-01-12 09:40:00,57.4,57.4,29.98,South,184,4.4,8.5,100,0.00,,BKN250,0.00,VWS V14.01,2013-01-12 14:40:00,
2013-01-12 09:45:00,57.4,57.4,29.98,SSW,192,0.0,4.7,100,0.00,,BKN250,0.00,VWS V14.01,2013-01-12 14:45:00,
2013-01-12 09:50:00,57.4,57.4,29.98,SSW,192,0.0,5.6,100,0.00,,BKN250,0.00,VWS V14.01,2013-01-12 14:50:00,
2013-01-12 09:55:00,57.6,57.6,29.98,SSW,195,0.0,5.6,100,0.00,,BKN250,0.00,VWS V14.01,2013-01-12 14:55:00,
2013-01-12 10:01:00,57.6,57.6,29.98,SSW,193,0.0,0.0,100,0.00,,BKN250,0.00,VWS V14.01,2013-01-12 15:01:00,
2013-01-12 10:06:00,57.7,57.7,29.98,SW,221,0.0,0.0,100,0.00,,BKN250,0.00,VWS V14.01,2013-01-12 15:06:00,
2013-01-12 10:11:00,57.9,57.9,29.98,South,175,0.0,5.6,100,0.00,,BKN250,0.00,VWS V14.01,2013-01-12 15:11:00,
2013-01-12 10:16:00,58.1,58.1,29.98,SSW,200,4.4,6.6,100,0.00,,BKN250,0.00,VWS V14.01,2013-01-12 15:16:00,
2013-01-12 10:21:00,58.3,58.3,29.98,South,185,3.7,6.6,100,0.00,,BKN250,0.00,VWS V14.01,2013-01-12 15:21:00,
2013-01-12 10:26:00,58.3,58.3,29.98,South,185,0.0,0.0,100,0.00,,BKN250,0.00,VWS V14.01,2013-01-12 15:26:00,
2013-01-12 10:31:00,58.6,58.6,29.98,SSW,207,0.0,12.2,100,0.00,,BKN250,0.00,VWS V14.01,2013-01-12 15:31:00,
2013-01-12 10:36:00,58.8,58.8,29.98,South,169,6.6,8.5,100,0.00,,BKN250,0.00,VWS V14.01,2013-01-12 15:36:00,
2013-01-12 10:41:00,59.2,59.2,29.98,SW,226,5.9,7.5,100,0.00,,BKN230,0.00,VWS V14.01,2013-01-12 15:41:00,
2013-01-12 10:46:00,59.4,59.4,29.98,SSE,165,5.2,10.3,100,0.00,,BKN230,0.00,VWS V14.01,2013-01-12 15:46:00,
2013-01-12 10:51:00,59.5,59.5,29.98,SSW,195,5.2,6.6,100,0.00,,BKN230,0.00,VWS V14.01,2013-01-12 15:51:00,
2013-01-12 10:56:00,59.7,59.7,29.98,WSW,254,5.9,8.5,100,0.00,,BKN230,0.00,VWS V14.01,2013-01-12 15:56:00,
2013-01-12 11:02:00,59.9,59.9,29.98,SW,230,0.0,5.6,100,0.00,,BKN230,0.00,VWS V14.01,2013-01-12 16:02:00,
2013-01-12 11:07:00,60.1,60.1,29.98,South,184,5.2,6.6,100,0.00,,BKN230,0.00,VWS V14.01,2013-01-12 16:07:00,
2013-01-12 11:12:00,60.4,60.4,29.98,South,176,0.0,0.0,100,0.00,,BKN230,0.00,VWS V14.01,2013-01-12 16:12:00,
2013-01-12 11:17:00,60.4,60.4,29.98,SSW,196,5.9,7.5,100,0.00,,BKN230,0.00,VWS V14.01,2013-01-12 16:17:00,
2013-01-12 11:22:00,60.6,60.6,29.98,SSW,199,8.1,10.3,100,0.00,,BKN230,0.00,VWS V14.01,2013-01-12 16:22:00,
2013-01-12 11:27:00,60.8,60.8,29.98,SSW,206,0.0,4.7,100,0.00,,BKN230,0.00,VWS V14.01,2013-01-12 16:27:00,
2013-01-12 11:32:00,61.2,61.2,29.98,SSW,198,7.4,9.4,100,0.00,,BKN230,0.00,VWS V14.01,2013-01-12 16:32:00,
2013-01-12 11:37:00,61.3,61.3,29.98,South,170,6.6,8.5,100,0.00,,BKN230,0.00,VWS V14.01,2013-01-12 16:37:00,
2013-01-12 11:42:00,61.2,61.2,29.98,SSW,203,4.4,6.6,100,0.00,,BKN230,0.00,VWS V14.01,2013-01-12 16:42:00,
2013-01-12 11:47:00,61.2,61.2,29.98,SSE,165,5.2,6.6,100,0.00,,BKN230,0.00,VWS V14.01,2013-01-12 16:47:00,
2013-01-12 11:52:00,61.3,61.3,29.98,South,190,4.4,5.6,100,0.00,,BKN230,0.00,VWS V14.01,2013-01-12 16:52:00,
2013-01-12 11:57:00,61.5,61.5,29.98,SSE,160,6.6,11.3,100,0.00,,BKN230,0.00,VWS V14.01,2013-01-12 16:57:00,
2013-01-12 12:02:00,61.9,61.9,29.98,South,184,4.4,6.6,100,0.00,,BKN230,0.00,VWS V14.01,2013-01-12 17:02:00,
2013-01-12 12:07:00,62.1,62.1,29.98,SSE,153,5.9,7.5,100,0.00,,BKN230,0.79,VWS V14.01,2013-01-12 17:07:00,
2013-01-12 12:12:00,62.4,62.4,29.98,WSW,258,0.0,0.0,100,0.00,,BKN230,0.00,VWS V14.01,2013-01-12 17:12:00,
2013-01-12 12:17:00,62.8,62.8,29.98,SSE,165,9.6,13.2,100,0.00,,BKN230,0.00,VWS V14.01,2013-01-12 17:17:00,
2013-01-12 12:22:00,63.1,63.1,29.98,South,169,8.9,11.3,100,0.00,,BKN230,0.00,VWS V14.01,2013-01-12 17:22:00,
2013-01-12 12:27:00,63.3,63.3,29.95,SSE,156,5.9,12.2,100,0.00,,BKN230,0.00,VWS V14.01,2013-01-12 17:27:00,
2013-01-12 12:32:00,63.5,63.5,29.95,WSW,256,4.4,13.2,100,0.00,,BKN230,0.00,VWS V14.01,2013-01-12 17:32:00,
2013-01-12 12:37:00,63.3,63.3,29.95,South,182,4.4,8.5,100,0.00,,BKN230,0.00,VWS V14.01,2013-01-12 17:37:00,
2013-01-12 12:43:00,63.5,63.5,29.95,SW,222,8.9,11.3,100,0.00,,OVC230,0.00,VWS V14.01,2013-01-12 17:43:00,
2013-01-12 12:48:00,63.5,63.5,29.95,WSW,240,6.6,8.5,100,0.00,,OVC230,0.00,VWS V14.01,2013-01-12 17:48:00,
2013-01-12 12:53:00,63.3,63.3,29.95,SSW,200,8.1,10.3,100,0.00,,OVC230,0.00,VWS V14.01,2013-01-12 17:53:00,
2013-01-12 12:58:00,63.5,63.5,29.95,WSW,249,6.6,8.5,100,0.00,,OVC230,0.00,VWS V14.01,2013-01-12 17:58:00,
2013-01-12 13:03:00,63.5,63.5,29.95,WNW,291,5.9,7.5,100,0.00,,OVC230,0.00,VWS V14.01,2013-01-12 18:03:00,
2013-01-12 13:08:00,63.5,63.5,29.95,West,267,5.2,6.6,100,0.00,,OVC230,0.00,VWS V14.01,2013-01-12 18:08:00,
2013-01-12 13:13:00,64.0,64.0,29.95,WSW,257,0.0,0.0,100,0.00,,OVC230,0.00,VWS V14.01,2013-01-12 18:13:00,
2013-01-12 13:18:00,64.2,64.2,29.95,NW,315,5.9,8.5,100,0.00,,OVC230,0.00,VWS V14.01,2013-01-12 18:18:00,
2013-01-12 13:23:00,64.4,64.0,29.95,West,270,0.0,0.0,99,0.00,,OVC230,0.00,VWS V14.01,2013-01-12 18:23:00,
2013-01-12 13:28:00,64.6,63.2,29.95,West,269,5.2,6.6,95,0.00,,OVC230,0.00,VWS V14.01,2013-01-12 18:28:00,
2013-01-12 13:33:00,64.4,63.0,29.95,North,357,0.0,5.6,95,0.00,,OVC230,0.00,VWS V14.01,2013-01-12 18:33:00,
2013-01-12 13:38:00,64.6,63.7,29.95,North,357,3.7,4.7,97,0.00,,OVC230,0.00,VWS V14.01,2013-01-12 18:38:00,
2013-01-12 13:43:00,64.6,62.7,29.95,North,357,0.0,0.0,94,0.00,,OVC230,0.00,VWS V14.01,2013-01-12 18:43:00,
2013-01-12 13:48:00,64.6,63.7,29.95,North,4,0.0,0.0,97,0.00,,OVC230,0.00,VWS V14.01,2013-01-12 18:48:00,
2013-01-12 13:53:00,64.6,62.7,29.95,North,357,0.0,0.0,94,0.00,,OVC230,0.00,VWS V14.01,2013-01-12 18:53:00,
2013-01-12 13:58:00,64.4,63.0,29.92,North,357,0.0,0.0,95,0.00,,OVC230,0.00,VWS V14.01,2013-01-12 18:58:00,
2013-01-12 14:04:00,64.2,63.3,29.92,North,357,0.0,0.0,97,0.00,,OVC230,0.00,VWS V14.01,2013-01-12 19:04:00,
2013-01-12 14:09:00,63.9,63.5,29.92,North,357,0.0,0.0,99,0.00,,OVC230,0.00,VWS V14.01,2013-01-12 19:09:00,
2013-01-12 14:14:00,63.7,63.3,29.92,NNE,15,3.7,4.7,99,0.00,,OVC230,0.00,VWS V14.01,2013-01-12 19:14:00,
2013-01-12 14:19:00,63.5,63.1,29.92,NNE,15,3.7,4.7,99,0.00,,OVC230,0.00,VWS V14.01,2013-01-12 19:19:00,
2013-01-12 14:24:00,63.3,63.3,29.92,NNE,14,0.0,0.0,100,0.00,,OVC230,0.00,VWS V14.01,2013-01-12 19:24:00,
2013-01-12 14:29:00,63.1,63.1,29.92,NNE,14,0.0,0.0,100,0.00,,OVC230,0.00,VWS V14.01,2013-01-12 19:29:00,
2013-01-12 14:34:00,63.0,63.0,29.92,NNE,14,0.0,0.0,100,0.00,,OVC230,0.00,VWS V14.01,2013-01-12 19:34:00,
2013-01-12 14:39:00,63.0,63.0,29.92,NNE,13,0.0,0.0,100,0.00,,OVC230,0.00,VWS V14.01,2013-01-12 19:39:00,
2013-01-12 14:44:00,62.8,62.8,29.92,NNE,14,0.0,0.0,100,0.00,,OVC230,0.00,VWS V14.01,2013-01-12 19:44:00,
2013-01-12 14:49:00,62.6,62.6,29.92,NNE,14,0.0,0.0,100,0.00,,OVC230,0.00,VWS V14.01,2013-01-12 19:49:00,
2013-01-12 14:54:00,62.6,62.6,29.92,NNE,14,0.0,0.0,100,0.00,,OVC230,0.00,VWS V14.01,2013-01-12 19:54:00,
2013-01-12 14:59:00,62.6,62.6,29.92,NNE,20,0.0,0.0,100,0.00,,OVC230,0.00,VWS V14.01,2013-01-12 19:59:00,
2013-01-12 15:04:00,62.6,62.6,29.92,NNE,15,0.0,0.0,100,0.00,,OVC230,0.00,VWS V14.01,2013-01-12 20:04:00,
2013-01-12 15:09:00,62.6,62.6,29.92,NNE,16,0.0,0.0,100,0.00,,OVC230,0.00,VWS V14.01,2013-01-12 20:09:00,
2013-01-12 15:14:00,62.4,62.4,29.92,East,93,4.4,6.6,100,0.00,,OVC230,0.00,VWS V14.01,2013-01-12 20:14:00,
2013-01-12 15:19:00,62.4,62.4,29.92,East,93,0.0,0.0,100,0.00,,OVC230,0.00,VWS V14.01,2013-01-12 20:19:00,
2013-01-12 15:25:00,62.2,62.2,29.92,East,93,0.0,0.0,100,0.00,,OVC230,0.00,VWS V14.01,2013-01-12 20:25:00,
2013-01-12 15:30:00,62.2,62.2,29.92,East,86,5.2,7.5,100,0.00,,OVC230,0.00,VWS V14.01,2013-01-12 20:30:00,
2013-01-12 15:35:00,62.2,62.2,29.92,ENE,78,0.0,0.0,100,0.00,,OVC230,0.00,VWS V14.01,2013-01-12 20:35:00,
2013-01-12 15:40:00,62.1,62.1,29.92,East,98,0.0,0.0,100,0.00,,OVC230,0.00,VWS V14.01,2013-01-12 20:40:00,
2013-01-12 15:45:00,62.1,62.1,29.89,ESE,102,3.7,5.6,100,0.00,,OVC230,0.00,VWS V14.01,2013-01-12 20:45:00,
2013-01-12 15:50:00,61.9,61.9,29.89,East,96,0.0,0.0,100,0.00,,OVC230,0.00,VWS V14.01,2013-01-12 20:50:00,
2013-01-12 15:55:00,61.7,61.7,29.89,East,98,5.2,6.6,100,0.00,,OVC230,0.00,VWS V14.01,2013-01-12 20:55:00,
2013-01-12 16:00:00,61.7,61.7,29.89,East,79,5.2,7.5,100,0.00,,OVC230,0.00,VWS V14.01,2013-01-12 21:00:00,
2013-01-12 16:05:00,61.5,61.5,29.89,East,84,5.9,7.5,100,0.00,,OVC230,0.00,VWS V14.01,2013-01-12 21:05:00,
2013-01-12 16:10:00,61.3,61.3,29.89,East,85,5.2,7.5,100,0.00,,OVC230,0.00,VWS V14.01,2013-01-12 21:10:00,
2013-01-12 16:15:00,61.3,61.3,29.89,ENE,77,5.2,6.6,100,0.00,,OVC230,0.00,VWS V14.01,2013-01-12 21:15:00,
2013-01-12 16:20:00,61.3,61.3,29.89,ENE,57,7.4,9.4,100,0.00,,OVC230,0.00,VWS V14.01,2013-01-12 21:20:00,
2013-01-12 16:25:00,61.3,61.3,29.86,ENE,58,0.0,6.6,100,0.00,,OVC230,0.00,VWS V14.01,2013-01-12 21:25:00,
2013-01-12 16:30:00,61.2,61.2,29.86,ENE,57,0.0,0.0,100,0.00,,OVC230,0.00,VWS V14.01,2013-01-12 21:30:00,
2013-01-12 16:36:00,61.0,61.0,29.86,ENE,57,0.0,5.6,100,0.00,,OVC065,0.00,VWS V14.01,2013-01-12 21:36:00,
2013-01-12 16:40:00,61.0,61.0,29.86,ENE,57,0.0,0.0,100,0.00,,OVC065,0.00,VWS V14.01,2013-01-12 21:40:00,
2013-01-12 16:46:00,60.8,60.8,29.86,NE,51,0.0,0.0,100,0.00,,OVC065,0.00,VWS V14.01,2013-01-12 21:46:00,
2013-01-12 16:50:00,60.8,60.8,29.86,ENE,58,0.0,0.0,100,0.00,,OVC065,0.00,VWS V14.01,2013-01-12 21:50:00,
2013-01-12 16:56:00,60.8,60.8,29.89,ENE,57,0.0,0.0,100,0.00,,OVC065,0.00,VWS V14.01,2013-01-12 21:56:00,
2013-01-12 17:00:00,60.8,60.8,29.89,ENE,57,0.0,0.0,100,0.00,,OVC065,0.00,VWS V14.01,2013-01-12 22:00:00,
2013-01-12 17:06:00,60.6,60.6,29.89,ENE,57,0.0,0.0,100,0.00,,OVC065,0.00,VWS V14.01,2013-01-12 22:06:00,
2013-01-12 17:11:00,60.4,60.4,29.86,ENE,57,0.0,0.0,100,0.00,,OVC065,0.00,VWS V14.01,2013-01-12 22:11:00,
2013-01-12 17:16:00,60.3,60.3,29.86,ENE,57,3.7,4.7,100,0.00,,OVC065,0.00,VWS V14.01,2013-01-12 22:16:00,
2013-01-12 17:21:00,60.3,60.3,29.86,ENE,57,0.0,0.0,100,0.00,,OVC065,0.00,VWS V14.01,2013-01-12 22:21:00,
2013-01-12 17:26:00,60.3,60.3,29.86,ENE,57,0.0,0.0,100,0.00,,OVC065,0.00,VWS V14.01,2013-01-12 22:26:00,
2013-01-12 17:31:00,60.1,60.1,29.86,ENE,57,5.9,7.5,100,0.00,,OVC065,0.00,VWS V14.01,2013-01-12 22:31:00,
2013-01-12 17:36:00,60.1,60.1,29.86,ENE,61,5.2,6.6,100,0.00,,OVC055,0.00,VWS V14.01,2013-01-12 22:36:00,
2013-01-12 17:41:00,60.1,60.1,29.83,ENE,75,5.9,7.5,100,0.00,,OVC055,0.00,VWS V14.01,2013-01-12 22:41:00,
2013-01-12 17:46:00,60.1,60.1,29.83,ENE,62,0.0,0.0,100,0.00,,OVC055,0.00,VWS V14.01,2013-01-12 22:46:00,
2013-01-12 17:51:00,59.9,59.9,29.83,ENE,62,4.4,5.6,100,0.00,,OVC055,0.00,VWS V14.01,2013-01-12 22:51:00,
2013-01-12 17:56:00,59.9,59.9,29.83,ENE,75,6.6,8.5,100,0.00,,OVC055,0.00,VWS V14.01,2013-01-12 22:56:00,
2013-01-12 18:01:00,59.9,59.9,29.83,East,79,8.1,10.3,100,0.00,,OVC055,0.00,VWS V14.01,2013-01-12 23:01:00,
2013-01-12 18:07:00,59.7,59.7,29.83,East,89,4.4,10.3,100,0.00,,OVC055,0.00,VWS V14.01,2013-01-12 23:07:00,
2013-01-12 18:12:00,59.7,59.7,29.80,ENE,69,4.4,8.5,100,0.04,,OVC055,0.04,VWS V14.01,2013-01-12 23:12:00,
2013-01-12 18:17:00,59.7,59.7,29.80,East,96,5.2,8.5,100,0.04,,OVC055,0.04,VWS V14.01,2013-01-12 23:17:00,
2013-01-12 18:22:00,59.9,59.9,29.80,ENE,60,10.3,13.2,100,0.04,,OVC055,0.04,VWS V14.01,2013-01-12 23:22:00,
2013-01-12 18:27:00,59.9,59.9,29.77,East,80,8.9,16.9,100,0.04,,OVC055,0.04,VWS V14.01,2013-01-12 23:27:00,
2013-01-12 18:32:00,60.1,60.1,29.77,ESE,116,5.2,7.5,100,0.04,,OVC055,0.04,VWS V14.01,2013-01-12 23:32:00,
2013-01-12 18:37:00,60.3,60.3,29.77,WSW,257,4.4,7.5,100,0.08,,OVC055,0.08,VWS V14.01,2013-01-12 23:37:00,
2013-01-12 18:43:00,61.0,61.0,29.83,NNW,330,6.6,8.5,100,0.16,,RA,0.16,VWS V14.01,2013-01-12 23:43:00,
2013-01-12 18:48:00,60.6,60.6,29.83,WNW,284,5.2,10.3,100,0.20,,RA,0.20,VWS V14.01,2013-01-12 23:48:00,
2013-01-12 18:53:00,60.3,60.3,29.83,NW,310,5.2,6.6,100,0.28,, +RA,0.28,VWS V14.01,2013-01-12 23:53:00,
2013-01-12 18:58:00,60.4,60.4,29.80,NNW,328,0.0,4.7,100,0.31,, +RA,0.31,VWS V14.01,2013-01-12 23:58:00,
2013-01-12 19:03:00,60.1,60.1,29.80,ENE,58,5.9,8.5,100,0.39,, +RA,0.39,VWS V14.01,2013-01-13 00:03:00,
2013-01-12 19:09:00,60.1,60.1,29.80,East,94,0.0,0.0,100,0.39,, +RA,0.39,VWS V14.01,2013-01-13 00:09:00,
2013-01-12 19:14:00,60.1,60.1,29.80,East,97,0.0,8.5,100,0.35,,RA,0.39,VWS V14.01,2013-01-13 00:14:00,
2013-01-12 19:19:00,60.3,60.3,29.80,East,82,5.9,12.2,100,0.39,,RA,0.43,VWS V14.01,2013-01-13 00:19:00,
2013-01-12 19:24:00,60.4,60.4,29.80,South,171,5.9,11.3,100,0.39,,RA,0.43,VWS V14.01,2013-01-13 00:24:00,
2013-01-12 19:29:00,60.8,60.8,29.80,SE,130,4.4,7.5,100,0.43,,RA,0.47,VWS V14.01,2013-01-13 00:29:00,
2013-01-12 19:34:00,61.3,61.3,29.80,South,171,5.9,8.5,100,0.39,,RA,0.47,VWS V14.01,2013-01-13 00:34:00,
2013-01-12 19:40:00,61.9,61.9,29.80,South,183,10.3,16.0,100,0.39,, +RA,0.47,VWS V14.01,2013-01-13 00:40:00,
2013-01-12 19:45:00,62.4,62.4,29.80,SSE,161,13.3,16.9,100,0.31,, +RA,0.47,VWS V14.01,2013-01-13 00:45:00,
2013-01-12 19:50:00,62.6,62.6,29.80,SE,125,8.1,17.4,100,0.24,, +RA,0.47,VWS V14.01,2013-01-13 00:50:00,
2013-01-12 19:55:00,63.0,63.0,29.80,SSW,210,5.2,13.2,100,0.20,, +RA,0.47,VWS V14.01,2013-01-13 00:55:00,
2013-01-12 20:00:00,63.3,63.3,29.80,SSW,212,5.9,11.3,100,0.12,, +RA,0.47,VWS V14.01,2013-01-13 01:00:00,
2013-01-12 20:05:00,63.1,63.1,29.80,SSE,157,13.3,16.9,100,0.08,, +RA,0.47,VWS V14.01,2013-01-13 01:05:00,
2013-01-12 20:10:00,63.1,63.1,29.77,SW,219,3.7,16.0,100,0.08,, +RA,0.47,VWS V14.01,2013-01-13 01:10:00,
2013-01-12 20:15:00,63.3,63.3,29.77,SSW,205,23.3,29.6,100,0.08,, +RA,0.47,VWS V14.01,2013-01-13 01:15:00,
2013-01-12 20:21:00,63.3,63.3,29.77,SSE,149,13.7,21.1,100,0.04,, +RA,0.47,VWS V14.01,2013-01-13 01:21:00,
2013-01-12 20:26:00,63.7,63.7,29.77,South,181,4.4,17.4,100,0.04,, +RA,0.47,VWS V14.01,2013-01-13 01:26:00,
2013-01-12 20:31:00,63.7,63.7,29.77,SSE,150,6.6,12.2,100,0.00,, +RA,0.47,VWS V14.01,2013-01-13 01:31:00,
2013-01-12 20:36:00,63.5,63.5,29.77,South,180,8.9,11.3,100,0.00,,-RA,0.47,VWS V14.01,2013-01-13 01:36:00,
2013-01-12 20:41:00,63.5,63.5,29.77,SSE,152,13.7,17.4,100,0.00,,-RA,0.47,VWS V14.01,2013-01-13 01:41:00,
2013-01-12 20:46:00,63.7,63.7,29.77,SSE,160,18.1,23.0,100,0.00,,-RA,0.47,VWS V14.01,2013-01-13 01:46:00,
2013-01-12 20:51:00,63.7,63.7,29.77,WSW,242,9.6,12.2,100,0.00,,-RA,0.47,VWS V14.01,2013-01-13 01:51:00,
2013-01-12 20:56:00,63.9,63.9,29.77,SSE,157,8.9,13.2,100,0.00,,-RA,0.47,VWS V14.01,2013-01-13 01:56:00,
2013-01-12 21:02:00,64.0,64.0,29.77,SW,236,8.9,17.4,100,0.00,,-RA,0.47,VWS V14.01,2013-01-13 02:02:00,
2013-01-12 21:07:00,64.0,64.0,29.77,SSE,158,18.1,24.0,100,0.00,,-RA,0.47,VWS V14.01,2013-01-13 02:07:00,
2013-01-12 21:12:00,64.2,64.2,29.77,WSW,238,9.6,12.2,100,0.00,,-RA,0.47,VWS V14.01,2013-01-13 02:12:00,
2013-01-12 21:17:00,64.2,64.2,29.77,SSE,155,14.4,21.1,100,0.00,,-RA,0.47,VWS V14.01,2013-01-13 02:17:00,
2013-01-12 21:22:00,64.2,64.2,29.77,South,189,16.6,21.1,100,0.00,,-RA,0.47,VWS V14.01,2013-01-13 02:22:00,
2013-01-12 21:27:00,64.4,64.4,29.77,SSW,196,9.6,17.4,100,0.00,,-RA,0.47,VWS V14.01,2013-01-13 02:27:00,
2013-01-12 21:32:00,64.4,64.4,29.77,South,179,18.1,23.0,100,0.00,,-RA,0.47,VWS V14.01,2013-01-13 02:32:00,
2013-01-12 21:37:00,64.4,64.4,29.77,South,185,9.6,16.0,100,0.00,,,0.47,VWS V14.01,2013-01-13 02:37:00,
2013-01-12 21:42:00,64.4,64.4,29.77,SSE,150,13.7,25.8,100,0.00,,,0.47,VWS V14.01,2013-01-13 02:42:00,
2013-01-12 21:48:00,64.6,64.6,29.77,SSE,158,13.7,17.4,100,0.00,,,0.47,VWS V14.01,2013-01-13 02:48:00,
2013-01-12 21:53:00,64.6,64.6,29.77,SSE,168,17.3,22.1,100,0.00,,,0.47,VWS V14.01,2013-01-13 02:53:00,
2013-01-12 21:58:00,64.6,64.6,29.77,South,175,12.5,16.0,100,0.00,,,0.47,VWS V14.01,2013-01-13 02:58:00,
2013-01-12 22:03:00,64.6,64.6,29.77,SSE,163,13.3,16.9,100,0.00,,,0.47,VWS V14.01,2013-01-13 03:03:00,
2013-01-12 22:08:00,64.6,64.6,29.77,SW,214,8.9,18.3,100,0.00,,,0.47,VWS V14.01,2013-01-13 03:08:00,
2013-01-12 22:13:00,64.8,64.8,29.77,SSE,167,14.4,22.1,100,0.00,,,0.47,VWS V14.01,2013-01-13 03:13:00,
2013-01-12 22:18:00,64.8,64.8,29.77,SSE,155,14.4,24.0,100,0.00,,,0.47,VWS V14.01,2013-01-13 03:18:00,
2013-01-12 22:23:00,64.8,64.8,29.77,South,182,12.5,22.1,100,0.00,,,0.47,VWS V14.01,2013-01-13 03:23:00,
2013-01-12 22:28:00,64.8,64.8,29.74,SSE,158,11.1,16.9,100,0.00,,,0.47,VWS V14.01,2013-01-13 03:28:00,
2013-01-12 22:33:00,64.8,64.8,29.74,SE,136,13.3,21.1,100,0.00,,,0.47,VWS V14.01,2013-01-13 03:33:00,
2013-01-12 22:38:00,64.8,64.8,29.74,SSE,167,10.3,16.9,100,0.00,,,0.47,VWS V14.01,2013-01-13 03:38:00,
2013-01-12 22:43:00,64.8,64.8,29.74,SSW,194,11.1,17.4,100,0.00,,-RA,0.47,VWS V14.01,2013-01-13 03:43:00,
2013-01-12 22:48:00,64.8,64.8,29.74,SSW,192,0.0,12.2,100,0.00,,-RA,0.47,VWS V14.01,2013-01-13 03:48:00,
2013-01-12 22:54:00,64.8,64.8,29.74,SSW,202,13.3,22.1,100,0.00,,,0.47,VWS V14.01,2013-01-13 03:54:00,
2013-01-12 22:59:00,64.8,64.8,29.74,SSE,164,8.1,16.0,100,0.00,,,0.47,VWS V14.01,2013-01-13 03:59:00,
2013-01-12 23:04:00,64.8,64.8,29.74,South,174,6.6,16.9,100,0.00,,,0.47,VWS V14.01,2013-01-13 04:04:00,
2013-01-12 23:09:00,64.8,64.8,29.74,SSE,155,5.9,20.2,100,0.00,,,0.47,VWS V14.01,2013-01-13 04:09:00,
2013-01-12 23:14:00,64.8,64.8,29.71,SSE,158,10.3,17.4,100,0.00,,,0.47,VWS V14.01,2013-01-13 04:14:00,
2013-01-12 23:19:00,64.9,64.9,29.71,SSE,155,12.5,17.4,100,0.00,,,0.47,VWS V14.01,2013-01-13 04:19:00,
2013-01-12 23:24:00,64.8,64.8,29.71,SSE,159,16.6,30.5,100,0.00,,,0.47,VWS V14.01,2013-01-13 04:24:00,
2013-01-12 23:29:00,64.9,64.9,29.71,South,180,9.6,12.2,100,0.00,,,0.47,VWS V14.01,2013-01-13 04:29:00,
2013-01-12 23:34:00,64.9,64.9,29.71,SSE,151,14.4,21.1,100,0.00,,,0.47,VWS V14.01,2013-01-13 04:34:00,
2013-01-12 23:39:00,64.9,64.9,29.71,SSE,158,18.1,23.0,100,0.00,,,0.47,VWS V14.01,2013-01-13 04:39:00,
2013-01-12 23:44:00,65.1,65.1,29.71,South,182,13.3,21.1,100,0.00,,-RA,0.47,VWS V14.01,2013-01-13 04:44:00,
2013-01-12 23:50:00,65.1,65.1,29.71,South,169,5.9,11.3,100,0.00,,-RA,0.47,VWS V14.01,2013-01-13 04:50:00,
2013-01-12 23:55:00,65.1,65.1,29.71,South,181,11.8,17.4,100,0.00,,RA,0.47,VWS V14.01,2013-01-13 04:55:00,